createdAt,value
2023-03-15T00:02:12.284Z,99908.38
2023-03-15T00:04:42.195Z,99923.44
2023-03-15T00:07:11.602Z,99925.28
2023-03-15T00:09:41.513Z,99928.84
2023-03-15T00:12:10.801Z,99926.19
2023-03-15T00:14:40.174Z,99928.78
2023-03-15T00:17:09.243Z,99928.00
2023-03-15T00:19:38.358Z,99928.00
2023-03-15T00:22:08.948Z,99918.41
2023-03-15T00:24:37.868Z,99919.25
2023-03-15T00:27:08.153Z,99919.19
2023-03-15T00:29:37.152Z,99917.37
2023-03-15T00:32:06.747Z,99918.41
2023-03-15T00:34:35.914Z,99915.75
2023-03-15T00:37:05.599Z,99911.31
2023-03-15T00:39:38.555Z,99919.97
2023-03-15T00:42:09.358Z,99924.22
2023-03-15T00:44:38.819Z,99925.91
2023-03-15T00:47:08.437Z,99925.91
2023-03-15T00:49:37.514Z,99935.44
2023-03-15T00:52:09.812Z,99934.47
2023-03-15T00:54:38.837Z,99929.56
2023-03-15T00:57:08.349Z,99931.87
2023-03-15T00:59:36.881Z,99938.69
2023-03-15T01:02:08.245Z,99934.97
2023-03-15T01:04:37.976Z,99928.09
2023-03-15T01:07:07.245Z,99927.88
2023-03-15T01:09:36.307Z,99931.34
2023-03-15T01:12:06.521Z,99925.22
2023-03-15T01:14:37.996Z,99932.22
2023-03-15T01:17:06.879Z,99926.22
2023-03-15T01:19:37.466Z,99914.78
2023-03-15T01:22:06.869Z,99922.63
2023-03-15T01:24:37.875Z,99918.38
2023-03-15T01:27:07.685Z,99919.03
2023-03-15T01:29:37.073Z,99918.97
2023-03-15T01:32:08.452Z,99916.53
2023-03-15T01:34:38.678Z,99914.84
2023-03-15T01:37:08.440Z,99914.22
2023-03-15T01:39:38.662Z,99922.00
2023-03-15T01:42:09.646Z,99923.69
2023-03-15T01:45:01.416Z,99918.44
2023-03-15T01:47:32.904Z,99916.94
2023-03-15T01:50:10.373Z,99916.94
2023-03-15T01:52:42.446Z,99925.28
2023-03-15T01:55:17.725Z,99923.69
2023-03-15T01:57:57.002Z,99923.94
2023-03-15T02:00:26.701Z,99914.28
2023-03-15T02:03:04.394Z,99921.22
2023-03-15T02:05:39.867Z,99917.00
2023-03-15T02:08:10.331Z,99919.53
2023-03-15T02:10:45.994Z,99910.84
2023-03-15T02:13:20.774Z,99919.53
2023-03-15T02:15:50.827Z,99918.63
2023-03-15T02:18:21.993Z,99902.16
2023-03-15T02:21:08.715Z,99908.09
2023-03-15T02:23:37.019Z,99909.81
2023-03-15T02:26:08.428Z,99908.87
2023-03-15T02:28:37.955Z,99883.72
2023-03-15T02:31:07.678Z,99916.66
2023-03-15T02:33:43.872Z,99919.25
2023-03-15T02:36:30.591Z,99923.41
2023-03-15T02:39:02.046Z,99919.03
2023-03-15T02:41:37.349Z,99922.50
2023-03-15T02:44:22.749Z,99920.81
2023-03-15T02:46:55.043Z,99920.97
2023-03-15T02:49:28.025Z,99925.09
2023-03-15T02:51:57.040Z,99918.28
2023-03-15T02:54:25.938Z,99926.06
2023-03-15T02:56:54.800Z,99928.47
2023-03-15T02:59:23.457Z,99930.28
2023-03-15T03:01:52.235Z,99937.97
2023-03-15T03:04:21.604Z,99937.28
2023-03-15T03:06:50.663Z,99925.94
2023-03-15T03:09:19.591Z,99926.75
2023-03-15T03:11:49.589Z,99927.69
2023-03-15T03:14:19.326Z,99933.50
2023-03-15T03:16:49.477Z,99936.25
2023-03-15T03:19:19.455Z,99938.97
2023-03-15T03:21:47.851Z,99924.31
2023-03-15T03:24:19.395Z,99933.78
2023-03-15T03:26:49.588Z,99936.53
2023-03-15T03:29:19.042Z,99934.75
2023-03-15T03:31:48.451Z,99920.59
2023-03-15T03:34:18.117Z,99944.22
2023-03-15T03:36:46.508Z,99940.66
2023-03-15T03:39:15.475Z,99948.56
2023-03-15T03:41:45.226Z,99953.03
2023-03-15T03:44:14.516Z,99941.72
2023-03-15T03:46:43.416Z,99952.22
2023-03-15T03:49:15.346Z,99955.63
2023-03-15T03:51:46.688Z,99953.97
2023-03-15T03:54:17.175Z,99954.53
2023-03-15T03:56:47.671Z,99957.06
2023-03-15T03:59:17.425Z,99962.37
2023-03-15T04:01:52.473Z,99956.22
2023-03-15T04:04:21.157Z,99956.22
2023-03-15T04:06:51.864Z,99960.78
2023-03-15T04:09:26.433Z,99959.72
2023-03-15T04:11:56.244Z,99961.28
2023-03-15T04:14:26.531Z,99963.31
2023-03-15T04:16:55.429Z,99961.56
2023-03-15T04:19:23.585Z,99960.44
2023-03-15T04:21:53.516Z,99937.69
2023-03-15T04:24:42.234Z,99973.19
2023-03-15T04:27:15.357Z,99937.63
2023-03-15T04:29:45.354Z,99963.41
2023-03-15T04:32:13.963Z,99968.50
2023-03-15T04:34:43.094Z,99966.88
2023-03-15T04:37:12.766Z,99965.91
2023-03-15T04:39:43.674Z,99971.03
2023-03-15T04:42:14.475Z,99972.56
2023-03-15T04:44:44.070Z,99966.47
2023-03-15T04:47:13.758Z,99981.75
2023-03-15T04:49:43.432Z,99977.97
2023-03-15T04:52:11.658Z,99983.56
2023-03-15T04:54:39.796Z,99979.53
2023-03-15T04:57:09.806Z,99971.25
2023-03-15T04:59:40.339Z,99969.31
2023-03-15T05:02:09.304Z,99969.97
2023-03-15T05:04:37.387Z,99973.09
2023-03-15T05:07:06.759Z,99979.66
2023-03-15T05:09:40.106Z,99985.31
2023-03-15T05:12:10.099Z,99982.06
2023-03-15T05:14:38.801Z,99978.22
2023-03-15T05:17:08.290Z,99990.38
2023-03-15T05:19:43.151Z,99995.28
2023-03-15T05:22:11.013Z,99994.28
2023-03-15T05:24:39.923Z,100002.56
2023-03-15T05:27:10.652Z,99994.28
2023-03-15T05:29:39.056Z,100004.44
2023-03-15T05:32:08.553Z,99983.53
2023-03-15T05:34:38.278Z,100000.88
2023-03-15T05:37:07.679Z,100007.91
2023-03-15T05:39:36.485Z,100003.50
2023-03-15T05:42:07.608Z,100009.41
2023-03-15T05:44:36.858Z,100006.91
2023-03-15T05:47:04.696Z,100017.13
2023-03-15T05:49:33.951Z,100022.34
2023-03-15T05:52:05.255Z,100020.91
2023-03-15T05:54:33.662Z,100024.44
2023-03-15T05:57:03.520Z,99998.16
2023-03-15T05:59:33.806Z,100031.31
2023-03-15T06:02:04.760Z,100032.75
2023-03-15T06:04:35.110Z,100036.59
2023-03-15T06:07:04.539Z,100035.81
2023-03-15T06:09:35.278Z,100045.91
2023-03-15T06:12:06.460Z,100039.19
2023-03-15T06:14:35.268Z,100042.16
2023-03-15T06:17:05.910Z,100041.66
2023-03-15T06:19:37.362Z,100041.59
2023-03-15T06:22:06.748Z,100036.00
2023-03-15T06:24:36.474Z,100026.38
2023-03-15T06:27:05.166Z,100041.53
2023-03-15T06:29:36.695Z,100037.06
2023-03-15T06:32:06.289Z,100044.72
2023-03-15T06:34:34.362Z,100034.63
2023-03-15T06:37:04.059Z,100044.06
2023-03-15T06:39:35.108Z,100049.91
2023-03-15T06:42:05.755Z,100045.66
2023-03-15T06:44:34.861Z,100048.72
2023-03-15T06:47:05.000Z,100042.34
2023-03-15T06:49:38.609Z,100042.97
2023-03-15T06:52:08.515Z,100047.75
2023-03-15T06:54:37.138Z,100047.63
2023-03-15T06:57:06.152Z,100041.56
2023-03-15T06:59:34.822Z,100056.56
2023-03-15T07:02:03.282Z,100056.16
2023-03-15T07:04:32.535Z,100061.72
2023-03-15T07:07:00.984Z,100056.59
2023-03-15T07:09:30.479Z,100060.44
2023-03-15T07:11:59.185Z,100067.00
2023-03-15T07:14:31.300Z,100066.12
2023-03-15T07:17:01.173Z,100075.84
2023-03-15T07:19:30.300Z,100068.19
2023-03-15T07:21:59.249Z,100066.88
2023-03-15T07:24:28.887Z,100070.44
2023-03-15T07:26:58.698Z,100072.53
2023-03-15T07:29:27.421Z,100073.66
2023-03-15T07:31:56.171Z,100076.28
2023-03-15T07:34:25.238Z,100082.50
2023-03-15T07:36:54.110Z,100085.22
2023-03-15T07:39:24.070Z,100091.19
2023-03-15T07:41:53.905Z,100089.19
2023-03-15T07:44:22.677Z,100093.84
2023-03-15T07:46:52.519Z,100095.78
2023-03-15T07:49:23.100Z,100096.75
2023-03-15T07:51:52.060Z,100099.47
2023-03-15T07:54:20.758Z,100103.75
2023-03-15T07:56:49.531Z,100103.78
2023-03-15T07:59:18.025Z,100101.25
2023-03-15T08:01:48.178Z,100099.97
2023-03-15T08:04:16.791Z,100096.28
2023-03-15T08:06:45.494Z,100089.34
2023-03-15T08:09:14.227Z,100098.41
2023-03-15T08:11:44.054Z,100100.03
2023-03-15T08:14:13.896Z,100102.94
2023-03-15T08:16:43.251Z,100105.06
2023-03-15T08:19:11.707Z,100108.59
2023-03-15T08:21:40.857Z,100106.28
2023-03-15T08:24:10.059Z,100106.47
2023-03-15T08:26:40.088Z,100107.72
2023-03-15T08:29:10.457Z,100114.06
2023-03-15T08:31:39.876Z,100105.84
2023-03-15T08:34:07.913Z,100101.09
2023-03-15T08:36:37.122Z,100108.25
2023-03-15T08:39:06.568Z,100105.56
2023-03-15T08:41:36.046Z,100096.88
2023-03-15T08:44:04.572Z,100092.38
2023-03-15T08:46:34.309Z,100092.72
2023-03-15T08:49:03.483Z,100098.94
2023-03-15T08:51:32.783Z,100092.94
2023-03-15T08:54:04.243Z,100099.69
2023-03-15T08:56:32.855Z,100091.97
2023-03-15T08:59:01.511Z,100095.44
2023-03-15T09:01:30.447Z,100085.97
2023-03-15T09:03:58.526Z,100093.75
2023-03-15T09:06:26.476Z,100094.06
2023-03-15T09:08:54.826Z,100100.31
2023-03-15T09:11:24.095Z,100090.63
2023-03-15T09:13:54.393Z,100096.81
2023-03-15T09:16:22.838Z,100089.59
2023-03-15T09:18:50.577Z,100094.50
2023-03-15T09:21:18.435Z,100099.06
2023-03-15T09:23:46.338Z,100099.31
2023-03-15T09:26:15.262Z,100096.88
2023-03-15T09:28:43.820Z,100088.56
2023-03-15T09:31:11.994Z,100102.34
2023-03-15T09:33:40.501Z,100092.56
2023-03-15T09:36:09.809Z,100097.38
2023-03-15T09:38:38.154Z,100097.31
2023-03-15T09:41:07.305Z,100109.94
2023-03-15T09:43:42.502Z,100096.84
2023-03-15T09:46:30.888Z,100097.13
2023-03-15T09:49:33.823Z,100100.69
2023-03-15T09:52:26.977Z,100097.00
2023-03-15T09:55:02.358Z,100104.31
2023-03-15T09:57:37.065Z,100094.16
2023-03-15T10:00:11.890Z,100098.94
2023-03-15T10:02:52.137Z,100087.25
2023-03-15T10:05:36.349Z,100090.16
2023-03-15T10:08:11.674Z,100093.56
2023-03-15T10:10:47.865Z,100100.25
2023-03-15T10:13:17.484Z,100099.56
2023-03-15T10:16:22.826Z,100100.47
2023-03-15T10:19:06.451Z,100099.78
2023-03-15T10:21:42.941Z,100101.72
2023-03-15T10:24:23.751Z,100097.69
2023-03-15T10:26:55.563Z,100101.56
2023-03-15T10:29:26.924Z,100090.38
2023-03-15T10:31:55.746Z,100096.41
2023-03-15T10:34:27.502Z,100088.16
2023-03-15T10:36:58.455Z,100087.94
2023-03-15T10:39:26.916Z,100089.56
2023-03-15T10:41:55.584Z,100093.44
2023-03-15T10:44:28.328Z,100095.22
2023-03-15T10:47:23.663Z,100094.75
2023-03-15T10:50:01.544Z,100094.72
2023-03-15T10:52:36.778Z,100086.91
2023-03-15T10:55:26.829Z,100096.66
2023-03-15T10:58:00.548Z,100100.00
2023-03-15T11:00:34.183Z,100097.84
2023-03-15T11:03:07.647Z,100092.94
2023-03-15T11:05:46.545Z,100097.03
2023-03-15T11:08:18.815Z,100091.41
2023-03-15T11:10:54.853Z,100096.94
2023-03-15T11:13:27.090Z,100102.34
2023-03-15T11:16:05.436Z,100094.59
2023-03-15T11:18:39.029Z,100089.91
2023-03-15T11:21:11.332Z,100096.88
2023-03-15T11:23:45.617Z,100095.81
2023-03-15T11:26:32.965Z,100099.66
2023-03-15T11:29:15.331Z,100093.56
2023-03-15T11:31:43.689Z,100094.94
2023-03-15T11:34:23.511Z,100102.38
2023-03-15T11:37:07.571Z,100091.78
2023-03-15T11:39:46.472Z,100101.78
2023-03-15T11:42:22.181Z,100086.28
2023-03-15T11:44:56.567Z,100091.97
2023-03-15T11:47:41.011Z,100093.59
2023-03-15T11:50:15.937Z,100098.94
2023-03-15T11:52:50.070Z,100092.47
2023-03-15T11:55:27.884Z,100070.69
2023-03-15T11:57:58.688Z,100090.19
2023-03-15T12:00:50.900Z,100092.34
2023-03-15T12:03:42.171Z,100080.41
2023-03-15T12:06:14.611Z,100082.19
2023-03-15T12:08:48.886Z,100084.84
2023-03-15T12:11:38.045Z,100086.88
2023-03-15T12:14:22.315Z,100083.88
2023-03-15T12:16:50.541Z,100089.94
2023-03-15T12:19:23.486Z,100088.09
2023-03-15T12:21:54.276Z,100095.88
2023-03-15T12:24:23.838Z,100094.31
2023-03-15T12:27:16.326Z,100091.25
2023-03-15T12:29:47.617Z,100094.50
2023-03-15T12:32:18.904Z,100099.97
2023-03-15T12:34:50.813Z,100090.06
2023-03-15T12:37:26.534Z,100086.84
2023-03-15T12:40:35.059Z,100099.47
2023-03-15T12:43:03.782Z,100097.53
2023-03-15T12:45:40.555Z,100092.75
2023-03-15T12:48:24.098Z,100096.12
2023-03-15T12:50:57.193Z,100094.19
2023-03-15T12:53:37.501Z,100087.72
2023-03-15T12:56:33.251Z,100096.53
2023-03-15T12:59:13.983Z,100078.03
2023-03-15T13:01:44.391Z,100098.34
2023-03-15T13:04:14.555Z,100088.09
2023-03-15T13:07:03.619Z,100080.75
2023-03-15T13:10:07.340Z,100089.59
2023-03-15T13:12:47.927Z,100081.84
2023-03-15T13:15:22.586Z,100090.00
2023-03-15T13:18:00.923Z,100074.59
2023-03-15T13:20:39.539Z,100075.78
2023-03-15T13:23:28.707Z,100074.13
2023-03-15T13:26:34.463Z,100065.09
2023-03-15T13:29:15.824Z,100042.75
2023-03-15T13:31:45.711Z,100066.72
2023-03-15T13:34:19.488Z,100067.50
2023-03-15T13:36:55.081Z,100066.47
2023-03-15T13:39:29.046Z,100079.31
2023-03-15T13:42:07.909Z,100067.50
2023-03-15T13:44:36.339Z,100073.63
2023-03-15T13:47:04.056Z,100071.56
2023-03-15T13:49:35.460Z,100068.16
2023-03-15T13:52:12.489Z,100076.97
2023-03-15T13:54:41.895Z,100070.16
2023-03-15T13:57:19.978Z,100081.37
2023-03-15T14:00:13.585Z,100057.75
2023-03-15T14:02:50.306Z,100081.66
2023-03-15T14:05:27.895Z,100082.78
2023-03-15T14:08:04.726Z,100076.38
2023-03-15T14:10:33.830Z,100085.41
2023-03-15T14:13:21.942Z,100090.09
2023-03-15T14:15:52.452Z,100089.69
2023-03-15T14:18:26.430Z,100093.41
2023-03-15T14:21:00.580Z,100084.97
2023-03-15T14:23:31.092Z,100082.81
2023-03-15T14:26:20.316Z,100090.75
2023-03-15T14:29:10.326Z,100083.28
2023-03-15T14:31:48.022Z,100087.22
2023-03-15T14:34:34.147Z,100086.69
2023-03-15T14:37:07.108Z,100086.75
2023-03-15T14:39:36.120Z,100088.91
2023-03-15T14:42:04.299Z,100090.03
2023-03-15T14:44:33.166Z,100085.31
2023-03-15T14:47:04.044Z,100049.91
2023-03-15T14:49:32.522Z,100081.47
2023-03-15T14:52:05.472Z,100076.56
2023-03-15T14:54:35.012Z,100085.94
2023-03-15T14:57:05.269Z,100091.78
2023-03-15T14:59:34.537Z,100099.38
2023-03-15T15:02:03.422Z,100091.13
2023-03-15T15:04:34.827Z,100087.94
2023-03-15T15:07:03.524Z,100096.00
2023-03-15T15:09:32.439Z,100086.69
2023-03-15T15:12:01.324Z,100094.03
2023-03-15T15:14:28.753Z,100084.06
2023-03-15T15:16:56.981Z,100095.41
2023-03-15T15:19:26.394Z,100094.16
2023-03-15T15:21:56.040Z,100101.75
2023-03-15T15:24:29.005Z,100098.19
2023-03-15T15:26:58.278Z,100075.88
2023-03-15T15:29:26.428Z,100091.50
2023-03-15T15:31:54.548Z,100095.47
2023-03-15T15:34:23.601Z,100091.91
2023-03-15T15:36:52.470Z,100100.59
2023-03-15T15:39:27.778Z,100103.19
2023-03-15T15:41:56.821Z,100093.28
2023-03-15T15:44:27.154Z,100102.56
2023-03-15T15:46:57.538Z,100109.59
2023-03-15T15:49:24.727Z,100115.88
2023-03-15T15:51:53.280Z,100086.44
2023-03-15T15:54:26.024Z,100112.00
2023-03-15T15:56:58.243Z,100113.34
2023-03-15T15:59:27.600Z,100120.84
2023-03-15T16:02:01.644Z,100117.84
2023-03-15T16:04:31.355Z,100121.44
2023-03-15T16:07:02.899Z,100119.91
2023-03-15T16:09:36.775Z,100116.03
2023-03-15T16:12:15.378Z,100128.03
2023-03-15T16:14:45.421Z,100126.50
2023-03-15T16:17:19.793Z,100128.16
2023-03-15T16:19:49.228Z,100131.97
2023-03-15T16:22:20.035Z,100125.47
2023-03-15T16:24:53.799Z,100125.41
2023-03-15T16:27:25.637Z,100103.31
2023-03-15T16:29:56.277Z,100130.94
2023-03-15T16:32:41.397Z,100127.09
2023-03-15T16:35:16.502Z,100119.13
2023-03-15T16:37:46.618Z,100114.25
2023-03-15T16:40:35.145Z,100118.37
2023-03-15T16:43:03.472Z,100124.97
2023-03-15T16:45:31.819Z,100114.72
2023-03-15T16:48:01.519Z,100114.81
2023-03-15T16:50:31.290Z,100120.53
2023-03-15T16:53:06.125Z,100125.66
2023-03-15T16:55:35.354Z,100128.34
2023-03-15T16:58:15.903Z,100129.84
2023-03-15T17:01:03.671Z,100130.16
2023-03-15T17:03:33.809Z,100128.50
2023-03-15T17:06:02.142Z,100138.28
2023-03-15T17:08:30.552Z,100131.87
2023-03-15T17:10:59.634Z,100131.09
2023-03-15T17:13:31.571Z,100127.09
2023-03-15T17:16:02.351Z,100129.56
2023-03-15T17:18:30.813Z,100134.84
2023-03-15T17:20:59.426Z,100127.41
2023-03-15T17:23:27.754Z,100127.88
2023-03-15T17:25:57.024Z,100128.41
2023-03-15T17:28:25.905Z,100143.03
2023-03-15T17:30:59.806Z,100136.59
2023-03-15T17:33:37.024Z,100128.25
2023-03-15T17:36:08.209Z,100132.22
2023-03-15T17:38:41.778Z,100136.88
2023-03-15T17:41:19.667Z,100128.16
2023-03-15T17:43:49.825Z,100139.00
2023-03-15T17:46:21.863Z,100141.13
2023-03-15T17:48:50.565Z,100134.78
2023-03-15T17:51:22.792Z,100138.56
2023-03-15T17:53:52.613Z,100129.97
2023-03-15T17:56:23.748Z,100135.03
2023-03-15T17:58:53.342Z,100132.72
2023-03-15T18:01:27.408Z,100129.97
2023-03-15T18:03:56.582Z,100131.41
2023-03-15T18:06:25.864Z,100129.06
2023-03-15T18:08:55.072Z,100123.00
2023-03-15T18:11:32.733Z,100121.41
2023-03-15T18:14:02.225Z,100121.97
2023-03-15T18:16:32.322Z,100127.75
2023-03-15T18:19:00.945Z,100088.66
2023-03-15T18:21:28.859Z,100114.66
2023-03-15T18:23:57.202Z,100118.22
2023-03-15T18:26:25.406Z,100119.94
2023-03-15T18:28:54.304Z,100125.53
2023-03-15T18:31:26.274Z,100122.56
2023-03-15T18:33:55.771Z,100095.59
2023-03-15T18:36:25.496Z,100098.37
2023-03-15T18:38:54.433Z,100108.22
2023-03-15T18:41:25.542Z,100114.84
2023-03-15T18:43:54.689Z,100119.09
2023-03-15T18:46:25.786Z,100127.63
2023-03-15T18:48:54.734Z,100128.22
2023-03-15T18:51:26.573Z,100126.69
2023-03-15T18:53:56.356Z,100128.44
2023-03-15T18:56:28.607Z,100117.31
2023-03-15T18:58:57.881Z,100119.78
2023-03-15T19:01:26.611Z,100109.75
2023-03-15T19:03:56.018Z,100112.69
2023-03-15T19:06:27.953Z,100107.91
2023-03-15T19:08:56.715Z,100116.34
2023-03-15T19:11:27.328Z,100113.19
2023-03-15T19:13:56.918Z,100108.47
2023-03-15T19:16:25.555Z,100092.91
2023-03-15T19:18:54.070Z,100118.63
2023-03-15T19:21:21.959Z,100085.78
2023-03-15T19:23:51.548Z,100116.19
2023-03-15T19:26:20.511Z,100113.12
2023-03-15T19:28:49.249Z,100109.94
2023-03-15T19:31:18.038Z,100116.66
2023-03-15T19:33:46.963Z,100119.19
2023-03-15T19:36:17.857Z,100109.78
2023-03-15T19:38:46.908Z,100117.78
2023-03-15T19:41:14.526Z,100113.44
2023-03-15T19:43:57.103Z,100112.50
2023-03-15T19:46:26.211Z,100107.50
2023-03-15T19:48:54.800Z,100108.78
2023-03-15T19:51:22.804Z,100114.28
2023-03-15T19:53:51.139Z,100112.81
2023-03-15T19:56:19.499Z,100113.38
2023-03-15T19:58:49.074Z,100113.78
2023-03-15T20:01:19.414Z,100096.00
2023-03-15T20:03:48.377Z,100106.75
2023-03-15T20:06:17.500Z,100101.56
2023-03-15T20:08:46.513Z,100098.97
2023-03-15T20:11:20.106Z,100096.53
2023-03-15T20:13:48.889Z,100093.00
2023-03-15T20:16:19.211Z,100090.97
2023-03-15T20:18:48.727Z,100089.62
2023-03-15T20:21:18.031Z,100083.09
2023-03-15T20:23:48.666Z,100086.91
2023-03-15T20:26:19.533Z,100087.44
2023-03-15T20:28:48.835Z,100083.53
2023-03-15T20:31:20.388Z,100092.44
2023-03-15T20:33:50.812Z,100082.75
2023-03-15T20:36:20.817Z,100078.16
2023-03-15T20:38:49.294Z,100086.19
2023-03-15T20:41:19.405Z,100088.28
2023-03-15T20:43:47.469Z,100083.88
2023-03-15T20:46:19.723Z,100070.53
2023-03-15T20:48:48.567Z,100077.19
2023-03-15T20:51:17.244Z,100081.22
2023-03-15T20:53:46.261Z,100056.22
2023-03-15T20:56:15.027Z,100076.91
2023-03-15T20:58:44.424Z,100074.53
2023-03-15T21:01:15.521Z,100079.59
2023-03-15T21:03:45.847Z,100077.47
2023-03-15T21:06:15.289Z,100075.09
2023-03-15T21:08:44.162Z,100074.75
2023-03-15T21:11:13.387Z,100066.12
2023-03-15T21:13:42.271Z,100068.50
2023-03-15T21:16:13.251Z,100066.53
2023-03-15T21:18:45.349Z,100076.91
2023-03-15T21:21:15.847Z,100070.19
2023-03-15T21:23:44.055Z,100075.81
2023-03-15T21:26:14.084Z,100076.44
2023-03-15T21:28:43.403Z,100071.09
2023-03-15T21:31:12.119Z,100069.12
2023-03-15T21:33:42.828Z,100066.19
2023-03-15T21:36:11.944Z,100063.66
2023-03-15T21:38:40.010Z,100061.28
2023-03-15T21:41:10.047Z,100070.19
2023-03-15T21:43:39.260Z,100069.41
2023-03-15T21:46:12.739Z,100069.91
2023-03-15T21:48:43.082Z,100069.12
2023-03-15T21:51:14.918Z,100068.03
2023-03-15T21:53:43.022Z,100069.62
2023-03-15T21:56:14.125Z,100070.47
2023-03-15T21:58:43.887Z,100071.56
2023-03-15T22:01:15.395Z,100066.25
2023-03-15T22:03:45.170Z,100066.25
2023-03-15T22:06:14.426Z,100069.47
2023-03-15T22:08:42.384Z,100067.53
2023-03-15T22:11:10.556Z,100065.97
2023-03-15T22:13:39.137Z,100064.50
2023-03-15T22:16:08.629Z,100068.63
2023-03-15T22:18:38.258Z,100070.47
2023-03-15T22:21:07.843Z,100070.69
2023-03-15T22:23:37.584Z,100069.06
2023-03-15T22:26:06.445Z,100069.19
2023-03-15T22:28:36.298Z,100059.50
2023-03-15T22:31:05.206Z,100062.00
2023-03-15T22:33:33.241Z,100063.72
2023-03-15T22:36:04.203Z,100065.41
2023-03-15T22:38:38.441Z,100059.56
2023-03-15T22:41:09.225Z,100056.09
2023-03-15T22:43:38.626Z,100061.91
2023-03-15T22:46:08.884Z,100059.03
2023-03-15T22:48:39.031Z,100056.03
2023-03-15T22:51:12.418Z,100064.50
2023-03-15T22:53:41.452Z,100049.63
2023-03-15T22:56:10.263Z,100060.13
2023-03-15T22:58:38.858Z,100065.81
2023-03-15T23:01:08.196Z,100071.03
2023-03-15T23:03:36.472Z,100058.53
2023-03-15T23:06:05.589Z,100047.81
2023-03-15T23:08:33.540Z,100056.38
2023-03-15T23:11:04.435Z,100050.91
2023-03-15T23:13:33.214Z,100047.09
2023-03-15T23:16:05.208Z,100050.41
2023-03-15T23:18:34.782Z,100052.34
2023-03-15T23:21:13.410Z,100054.41
2023-03-15T23:23:44.006Z,100053.22
2023-03-15T23:26:14.027Z,100048.13
2023-03-15T23:28:42.326Z,100046.66
2023-03-15T23:31:11.697Z,100050.03
2023-03-15T23:33:41.034Z,100044.22
2023-03-15T23:36:09.382Z,100042.97
2023-03-15T23:38:38.954Z,100051.53
2023-03-15T23:41:08.761Z,100044.00
2023-03-15T23:43:37.082Z,100029.00
2023-03-15T23:46:06.336Z,100046.50
2023-03-15T23:48:37.326Z,100043.41
2023-03-15T23:51:06.454Z,100039.06
2023-03-15T23:53:35.951Z,100039.12
2023-03-15T23:56:04.491Z,100030.19
2023-03-15T23:58:33.405Z,100029.06
